sensor_id;sensor_type;location;lat;lon;timestamp;P1;durP1;ratioP1;P2;durP2;ratioP2
20445;SDS011;10382;49.140;9.234;2023-09-12T00:00:08;18.13;;;6.40;;
20445;SDS011;10382;49.140;9.234;2023-09-12T00:02:36;17.47;;;6.43;;
20445;SDS011;10382;49.140;9.234;2023-09-12T00:05:03;13.33;;;6.23;;
20445;SDS011;10382;49.140;9.234;2023-09-12T00:07:30;20.10;;;8.97;;
20445;SDS011;10382;49.140;9.234;2023-09-12T00:09:57;18.40;;;7.30;;
20445;SDS011;10382;49.140;9.234;2023-09-12T00:12:25;15.57;;;6.03;;
20445;SDS011;10382;49.140;9.234;2023-09-12T00:14:52;12.10;;;7.07;;
20445;SDS011;10382;49.140;9.234;2023-09-12T00:17:19;20.30;;;8.23;;
20445;SDS011;10382;49.140;9.234;2023-09-12T00:19:46;19.33;;;7.70;;
20445;SDS011;10382;49.140;9.234;2023-09-12T00:22:13;16.07;;;7.50;;
20445;SDS011;10382;49.140;9.234;2023-09-12T00:24:40;10.70;;;7.90;;
20445;SDS011;10382;49.140;9.234;2023-09-12T00:27:07;25.03;;;7.73;;
20445;SDS011;10382;49.140;9.234;2023-09-12T00:29:35;21.40;;;8.83;;
20445;SDS011;10382;49.140;9.234;2023-09-12T00:32:02;22.13;;;8.57;;
20445;SDS011;10382;49.140;9.234;2023-09-12T00:34:30;17.50;;;8.77;;
20445;SDS011;10382;49.140;9.234;2023-09-12T00:36:57;28.97;;;8.80;;
20445;SDS011;10382;49.140;9.234;2023-09-12T00:39:23;20.53;;;7.50;;
20445;SDS011;10382;49.140;9.234;2023-09-12T00:41:50;18.03;;;8.83;;
20445;SDS011;10382;49.140;9.234;2023-09-12T00:44:17;17.10;;;9.57;;
20445;SDS011;10382;49.140;9.234;2023-09-12T00:46:45;17.10;;;7.20;;
20445;SDS011;10382;49.140;9.234;2023-09-12T00:49:14;25.30;;;9.03;;
20445;SDS011;10382;49.140;9.234;2023-09-12T00:51:42;20.30;;;8.50;;
20445;SDS011;10382;49.140;9.234;2023-09-12T00:54:10;17.07;;;9.23;;
20445;SDS011;10382;49.140;9.234;2023-09-12T00:56:37;17.33;;;7.73;;
20445;SDS011;10382;49.140;9.234;2023-09-12T00:59:04;12.67;;;7.93;;
20445;SDS011;10382;49.140;9.234;2023-09-12T01:01:32;10.67;;;6.60;;
20445;SDS011;10382;49.140;9.234;2023-09-12T01:04:01;18.00;;;7.30;;
20445;SDS011;10382;49.140;9.234;2023-09-12T01:06:28;20.20;;;6.60;;
20445;SDS011;10382;49.140;9.234;2023-09-12T01:08:57;14.90;;;7.60;;
20445;SDS011;10382;49.140;9.234;2023-09-12T01:11:23;19.63;;;7.57;;
20445;SDS011;10382;49.140;9.234;2023-09-12T01:13:50;19.03;;;9.07;;
20445;SDS011;10382;49.140;9.234;2023-09-12T01:16:17;12.90;;;6.83;;
20445;SDS011;10382;49.140;9.234;2023-09-12T01:18:44;23.13;;;7.80;;
20445;SDS011;10382;49.140;9.234;2023-09-12T01:21:22;11.47;;;6.90;;
20445;SDS011;10382;49.140;9.234;2023-09-12T01:24:33;19.57;;;9.17;;
20445;SDS011;10382;49.140;9.234;2023-09-12T01:27:21;28.10;;;9.47;;
20445;SDS011;10382;49.140;9.234;2023-09-12T01:29:53;17.83;;;7.57;;
20445;SDS011;10382;49.140;9.234;2023-09-12T01:32:22;12.80;;;8.00;;
20445;SDS011;10382;49.140;9.234;2023-09-12T01:34:49;18.07;;;7.90;;
20445;SDS011;10382;49.140;9.234;2023-09-12T01:37:16;15.20;;;7.60;;
20445;SDS011;10382;49.140;9.234;2023-09-12T01:39:43;11.83;;;7.40;;
20445;SDS011;10382;49.140;9.234;2023-09-12T01:42:10;14.27;;;8.03;;
20445;SDS011;10382;49.140;9.234;2023-09-12T01:44:42;22.00;;;7.30;;
20445;SDS011;10382;49.140;9.234;2023-09-12T01:47:10;21.70;;;7.50;;
20445;SDS011;10382;49.140;9.234;2023-09-12T01:49:39;13.67;;;6.40;;
20445;SDS011;10382;49.140;9.234;2023-09-12T01:52:08;17.03;;;7.13;;
20445;SDS011;10382;49.140;9.234;2023-09-12T01:54:36;16.40;;;8.23;;
20445;SDS011;10382;49.140;9.234;2023-09-12T01:57:04;12.50;;;7.23;;
20445;SDS011;10382;49.140;9.234;2023-09-12T01:59:33;14.07;;;7.53;;
20445;SDS011;10382;49.140;9.234;2023-09-12T02:02:01;13.00;;;7.50;;
20445;SDS011;10382;49.140;9.234;2023-09-12T02:04:28;20.93;;;10.10;;
20445;SDS011;10382;49.140;9.234;2023-09-12T02:06:55;16.03;;;7.60;;
20445;SDS011;10382;49.140;9.234;2023-09-12T02:09:23;22.97;;;8.47;;
20445;SDS011;10382;49.140;9.234;2023-09-12T02:11:50;14.23;;;7.07;;
20445;SDS011;10382;49.140;9.234;2023-09-12T02:14:17;18.70;;;8.23;;
20445;SDS011;10382;49.140;9.234;2023-09-12T02:16:44;15.57;;;8.43;;
20445;SDS011;10382;49.140;9.234;2023-09-12T02:19:12;18.73;;;8.60;;
20445;SDS011;10382;49.140;9.234;2023-09-12T02:21:41;17.80;;;7.43;;
20445;SDS011;10382;49.140;9.234;2023-09-12T02:24:09;17.03;;;6.33;;
20445;SDS011;10382;49.140;9.234;2023-09-12T02:26:36;21.87;;;7.37;;
20445;SDS011;10382;49.140;9.234;2023-09-12T02:29:04;31.23;;;10.20;;
20445;SDS011;10382;49.140;9.234;2023-09-12T02:31:32;16.43;;;8.27;;
20445;SDS011;10382;49.140;9.234;2023-09-12T02:33:59;17.17;;;9.50;;
20445;SDS011;10382;49.140;9.234;2023-09-12T02:36:27;15.80;;;8.27;;
20445;SDS011;10382;49.140;9.234;2023-09-12T02:38:54;28.80;;;10.10;;
20445;SDS011;10382;49.140;9.234;2023-09-12T02:41:21;20.43;;;8.80;;
20445;SDS011;10382;49.140;9.234;2023-09-12T02:43:48;16.10;;;8.00;;
20445;SDS011;10382;49.140;9.234;2023-09-12T02:46:15;19.13;;;7.43;;
20445;SDS011;10382;49.140;9.234;2023-09-12T02:48:42;14.00;;;8.23;;
20445;SDS011;10382;49.140;9.234;2023-09-12T02:51:09;22.40;;;9.10;;
20445;SDS011;10382;49.140;9.234;2023-09-12T02:53:37;13.33;;;7.30;;
20445;SDS011;10382;49.140;9.234;2023-09-12T02:56:04;15.80;;;7.57;;
20445;SDS011;10382;49.140;9.234;2023-09-12T02:58:30;14.07;;;8.23;;
20445;SDS011;10382;49.140;9.234;2023-09-12T03:00:57;33.50;;;8.00;;
20445;SDS011;10382;49.140;9.234;2023-09-12T03:03:24;23.10;;;8.60;;
20445;SDS011;10382;49.140;9.234;2023-09-12T03:05:57;21.07;;;7.73;;
20445;SDS011;10382;49.140;9.234;2023-09-12T03:08:23;17.13;;;9.17;;
20445;SDS011;10382;49.140;9.234;2023-09-12T03:10:54;13.93;;;8.20;;
20445;SDS011;10382;49.140;9.234;2023-09-12T03:13:21;15.07;;;8.00;;
20445;SDS011;10382;49.140;9.234;2023-09-12T03:15:49;12.30;;;8.13;;
20445;SDS011;10382;49.140;9.234;2023-09-12T03:18:16;16.43;;;8.30;;
20445;SDS011;10382;49.140;9.234;2023-09-12T03:20:43;14.00;;;7.83;;
20445;SDS011;10382;49.140;9.234;2023-09-12T03:23:09;14.23;;;8.03;;
20445;SDS011;10382;49.140;9.234;2023-09-12T03:25:36;18.30;;;8.20;;
20445;SDS011;10382;49.140;9.234;2023-09-12T03:28:05;20.73;;;7.80;;
20445;SDS011;10382;49.140;9.234;2023-09-12T03:30:32;30.00;;;8.30;;
20445;SDS011;10382;49.140;9.234;2023-09-12T03:33:00;15.33;;;7.83;;
20445;SDS011;10382;49.140;9.234;2023-09-12T03:35:27;12.47;;;8.27;;
20445;SDS011;10382;49.140;9.234;2023-09-12T03:37:55;19.27;;;7.70;;
20445;SDS011;10382;49.140;9.234;2023-09-12T03:40:22;19.53;;;8.80;;
20445;SDS011;10382;49.140;9.234;2023-09-12T03:42:48;18.13;;;8.10;;
20445;SDS011;10382;49.140;9.234;2023-09-12T03:45:17;22.80;;;10.87;;
20445;SDS011;10382;49.140;9.234;2023-09-12T03:47:44;20.30;;;9.03;;
20445;SDS011;10382;49.140;9.234;2023-09-12T03:50:12;20.73;;;8.30;;
20445;SDS011;10382;49.140;9.234;2023-09-12T03:52:39;21.27;;;8.30;;
20445;SDS011;10382;49.140;9.234;2023-09-12T03:55:06;14.83;;;8.20;;
20445;SDS011;10382;49.140;9.234;2023-09-12T03:57:33;30.97;;;8.80;;
20445;SDS011;10382;49.140;9.234;2023-09-12T04:00:00;14.57;;;9.10;;
20445;SDS011;10382;49.140;9.234;2023-09-12T04:02:30;19.00;;;8.90;;
20445;SDS011;10382;49.140;9.234;2023-09-12T04:04:57;25.57;;;8.53;;
20445;SDS011;10382;49.140;9.234;2023-09-12T04:07:25;14.03;;;8.27;;
20445;SDS011;10382;49.140;9.234;2023-09-12T04:09:52;19.03;;;8.67;;
20445;SDS011;10382;49.140;9.234;2023-09-12T04:12:18;21.53;;;9.20;;
20445;SDS011;10382;49.140;9.234;2023-09-12T04:14:47;19.73;;;8.50;;
20445;SDS011;10382;49.140;9.234;2023-09-12T04:17:15;21.40;;;9.60;;
20445;SDS011;10382;49.140;9.234;2023-09-12T04:19:43;34.60;;;8.60;;
20445;SDS011;10382;49.140;9.234;2023-09-12T04:22:10;18.40;;;11.07;;
20445;SDS011;10382;49.140;9.234;2023-09-12T04:24:37;26.83;;;10.27;;
20445;SDS011;10382;49.140;9.234;2023-09-12T04:27:04;23.10;;;9.80;;
20445;SDS011;10382;49.140;9.234;2023-09-12T04:29:32;11.60;;;8.07;;
20445;SDS011;10382;49.140;9.234;2023-09-12T04:31:59;25.43;;;9.63;;
20445;SDS011;10382;49.140;9.234;2023-09-12T04:34:28;17.83;;;9.80;;
20445;SDS011;10382;49.140;9.234;2023-09-12T04:36:56;21.50;;;9.20;;
20445;SDS011;10382;49.140;9.234;2023-09-12T04:39:23;15.00;;;7.60;;
20445;SDS011;10382;49.140;9.234;2023-09-12T04:41:50;17.63;;;10.50;;
20445;SDS011;10382;49.140;9.234;2023-09-12T04:44:17;26.50;;;9.90;;
20445;SDS011;10382;49.140;9.234;2023-09-12T04:46:44;15.47;;;7.30;;
20445;SDS011;10382;49.140;9.234;2023-09-12T04:49:11;11.37;;;6.70;;
20445;SDS011;10382;49.140;9.234;2023-09-12T04:51:38;20.00;;;8.93;;
20445;SDS011;10382;49.140;9.234;2023-09-12T04:54:06;23.83;;;8.47;;
20445;SDS011;10382;49.140;9.234;2023-09-12T04:56:33;19.00;;;7.17;;
20445;SDS011;10382;49.140;9.234;2023-09-12T04:59:00;14.90;;;9.33;;
20445;SDS011;10382;49.140;9.234;2023-09-12T05:01:27;18.73;;;10.33;;
20445;SDS011;10382;49.140;9.234;2023-09-12T05:03:54;16.93;;;7.80;;
20445;SDS011;10382;49.140;9.234;2023-09-12T05:06:20;18.73;;;8.17;;
20445;SDS011;10382;49.140;9.234;2023-09-12T05:08:47;24.20;;;9.23;;
20445;SDS011;10382;49.140;9.234;2023-09-12T05:11:16;29.87;;;9.63;;
20445;SDS011;10382;49.140;9.234;2023-09-12T05:13:43;15.10;;;8.70;;
20445;SDS011;10382;49.140;9.234;2023-09-12T05:16:10;22.60;;;10.23;;
20445;SDS011;10382;49.140;9.234;2023-09-12T05:18:37;15.20;;;9.20;;
20445;SDS011;10382;49.140;9.234;2023-09-12T05:21:03;18.80;;;9.80;;
20445;SDS011;10382;49.140;9.234;2023-09-12T05:23:30;21.43;;;9.50;;
20445;SDS011;10382;49.140;9.234;2023-09-12T05:25:57;23.60;;;8.03;;
20445;SDS011;10382;49.140;9.234;2023-09-12T05:28:25;15.70;;;8.97;;
20445;SDS011;10382;49.140;9.234;2023-09-12T05:30:52;17.60;;;8.60;;
20445;SDS011;10382;49.140;9.234;2023-09-12T05:33:19;32.93;;;8.80;;
20445;SDS011;10382;49.140;9.234;2023-09-12T05:35:46;16.03;;;8.60;;
20445;SDS011;10382;49.140;9.234;2023-09-12T05:38:13;33.37;;;9.07;;
20445;SDS011;10382;49.140;9.234;2023-09-12T05:40:40;16.40;;;8.90;;
20445;SDS011;10382;49.140;9.234;2023-09-12T05:43:07;22.40;;;10.87;;
20445;SDS011;10382;49.140;9.234;2023-09-12T05:45:35;17.87;;;10.00;;
20445;SDS011;10382;49.140;9.234;2023-09-12T05:48:02;23.87;;;9.90;;
20445;SDS011;10382;49.140;9.234;2023-09-12T05:50:29;26.77;;;9.93;;
20445;SDS011;10382;49.140;9.234;2023-09-12T05:52:56;17.60;;;9.57;;
20445;SDS011;10382;49.140;9.234;2023-09-12T05:55:23;18.53;;;8.50;;
20445;SDS011;10382;49.140;9.234;2023-09-12T05:57:50;23.40;;;8.97;;
20445;SDS011;10382;49.140;9.234;2023-09-12T06:00:17;24.40;;;10.73;;
20445;SDS011;10382;49.140;9.234;2023-09-12T06:02:46;27.73;;;10.27;;
20445;SDS011;10382;49.140;9.234;2023-09-12T06:05:13;26.90;;;10.97;;
20445;SDS011;10382;49.140;9.234;2023-09-12T06:07:41;27.13;;;11.13;;
20445;SDS011;10382;49.140;9.234;2023-09-12T06:10:08;15.20;;;9.20;;
20445;SDS011;10382;49.140;9.234;2023-09-12T06:12:35;37.30;;;10.33;;
20445;SDS011;10382;49.140;9.234;2023-09-12T06:15:03;23.67;;;10.17;;
20445;SDS011;10382;49.140;9.234;2023-09-12T06:17:30;17.87;;;9.10;;
20445;SDS011;10382;49.140;9.234;2023-09-12T06:19:58;34.57;;;10.73;;
20445;SDS011;10382;49.140;9.234;2023-09-12T06:22:25;32.50;;;11.40;;
20445;SDS011;10382;49.140;9.234;2023-09-12T06:24:52;42.57;;;10.43;;
20445;SDS011;10382;49.140;9.234;2023-09-12T06:27:19;26.50;;;10.20;;
20445;SDS011;10382;49.140;9.234;2023-09-12T06:29:46;35.40;;;10.77;;
20445;SDS011;10382;49.140;9.234;2023-09-12T06:32:13;23.50;;;9.63;;
20445;SDS011;10382;49.140;9.234;2023-09-12T06:34:40;32.00;;;11.47;;
20445;SDS011;10382;49.140;9.234;2023-09-12T06:37:08;32.37;;;10.33;;
20445;SDS011;10382;49.140;9.234;2023-09-12T06:39:36;24.20;;;9.80;;
20445;SDS011;10382;49.140;9.234;2023-09-12T06:42:03;35.33;;;10.53;;
20445;SDS011;10382;49.140;9.234;2023-09-12T06:44:31;30.77;;;11.17;;
20445;SDS011;10382;49.140;9.234;2023-09-12T06:46:57;33.17;;;10.77;;
20445;SDS011;10382;49.140;9.234;2023-09-12T06:49:24;27.93;;;11.00;;
20445;SDS011;10382;49.140;9.234;2023-09-12T06:51:51;43.80;;;10.20;;
20445;SDS011;10382;49.140;9.234;2023-09-12T06:54:19;43.57;;;12.17;;
20445;SDS011;10382;49.140;9.234;2023-09-12T06:56:46;24.63;;;11.93;;
20445;SDS011;10382;49.140;9.234;2023-09-12T06:59:13;34.97;;;11.30;;
20445;SDS011;10382;49.140;9.234;2023-09-12T07:01:40;28.03;;;11.77;;
20445;SDS011;10382;49.140;9.234;2023-09-12T07:04:08;27.37;;;10.87;;
20445;SDS011;10382;49.140;9.234;2023-09-12T07:06:35;26.40;;;11.33;;
20445;SDS011;10382;49.140;9.234;2023-09-12T07:09:02;29.97;;;10.90;;
20445;SDS011;10382;49.140;9.234;2023-09-12T07:11:31;21.87;;;10.40;;
20445;SDS011;10382;49.140;9.234;2023-09-12T07:13:57;23.10;;;10.53;;
20445;SDS011;10382;49.140;9.234;2023-09-12T07:16:24;35.80;;;11.37;;
20445;SDS011;10382;49.140;9.234;2023-09-12T07:18:51;27.00;;;10.37;;
20445;SDS011;10382;49.140;9.234;2023-09-12T07:21:18;30.77;;;10.93;;
20445;SDS011;10382;49.140;9.234;2023-09-12T07:23:47;22.40;;;11.60;;
20445;SDS011;10382;49.140;9.234;2023-09-12T07:26:14;17.27;;;9.27;;
20445;SDS011;10382;49.140;9.234;2023-09-12T07:28:42;38.67;;;10.03;;
20445;SDS011;10382;49.140;9.234;2023-09-12T07:31:09;23.03;;;10.60;;
20445;SDS011;10382;49.140;9.234;2023-09-12T07:33:36;21.30;;;9.20;;
20445;SDS011;10382;49.140;9.234;2023-09-12T07:36:03;25.70;;;10.20;;
20445;SDS011;10382;49.140;9.234;2023-09-12T07:38:30;30.93;;;10.87;;
20445;SDS011;10382;49.140;9.234;2023-09-12T07:40:57;40.87;;;12.23;;
20445;SDS011;10382;49.140;9.234;2023-09-12T07:43:25;32.10;;;10.70;;
20445;SDS011;10382;49.140;9.234;2023-09-12T07:45:55;21.20;;;8.60;;
20445;SDS011;10382;49.140;9.234;2023-09-12T07:48:23;35.87;;;9.50;;
20445;SDS011;10382;49.140;9.234;2023-09-12T07:50:50;19.83;;;8.47;;
20445;SDS011;10382;49.140;9.234;2023-09-12T07:53:17;22.63;;;9.83;;
20445;SDS011;10382;49.140;9.234;2023-09-12T07:55:44;26.93;;;9.17;;
20445;SDS011;10382;49.140;9.234;2023-09-12T07:58:11;26.50;;;9.80;;
20445;SDS011;10382;49.140;9.234;2023-09-12T08:00:39;16.27;;;8.97;;
20445;SDS011;10382;49.140;9.234;2023-09-12T08:03:07;38.60;;;10.00;;
20445;SDS011;10382;49.140;9.234;2023-09-12T08:05:35;16.37;;;8.10;;
20445;SDS011;10382;49.140;9.234;2023-09-12T08:08:03;16.67;;;8.33;;
20445;SDS011;10382;49.140;9.234;2023-09-12T08:10:30;27.47;;;10.10;;
20445;SDS011;10382;49.140;9.234;2023-09-12T08:12:57;23.40;;;8.10;;
20445;SDS011;10382;49.140;9.234;2023-09-12T08:15:24;24.00;;;8.17;;
20445;SDS011;10382;49.140;9.234;2023-09-12T08:17:51;17.17;;;8.03;;
20445;SDS011;10382;49.140;9.234;2023-09-12T08:20:19;20.13;;;9.10;;
20445;SDS011;10382;49.140;9.234;2023-09-12T08:22:46;13.40;;;8.10;;
20445;SDS011;10382;49.140;9.234;2023-09-12T08:25:13;28.83;;;8.63;;
20445;SDS011;10382;49.140;9.234;2023-09-12T08:27:40;24.80;;;9.10;;
20445;SDS011;10382;49.140;9.234;2023-09-12T08:30:09;21.80;;;8.53;;
20445;SDS011;10382;49.140;9.234;2023-09-12T08:32:37;24.07;;;8.23;;
20445;SDS011;10382;49.140;9.234;2023-09-12T08:35:08;24.10;;;9.23;;
20445;SDS011;10382;49.140;9.234;2023-09-12T08:37:38;27.60;;;8.50;;
20445;SDS011;10382;49.140;9.234;2023-09-12T08:40:06;27.43;;;10.47;;
20445;SDS011;10382;49.140;9.234;2023-09-12T08:42:36;16.03;;;8.90;;
20445;SDS011;10382;49.140;9.234;2023-09-12T08:45:07;15.93;;;8.00;;
20445;SDS011;10382;49.140;9.234;2023-09-12T08:47:38;31.37;;;9.40;;
20445;SDS011;10382;49.140;9.234;2023-09-12T08:50:07;18.07;;;8.60;;
20445;SDS011;10382;49.140;9.234;2023-09-12T08:52:37;18.50;;;9.10;;
20445;SDS011;10382;49.140;9.234;2023-09-12T08:55:05;25.50;;;8.83;;
20445;SDS011;10382;49.140;9.234;2023-09-12T08:57:33;16.77;;;8.67;;
20445;SDS011;10382;49.140;9.234;2023-09-12T09:00:01;18.30;;;8.67;;
20445;SDS011;10382;49.140;9.234;2023-09-12T09:02:31;19.63;;;9.00;;
20445;SDS011;10382;49.140;9.234;2023-09-12T09:04:59;25.73;;;8.33;;
20445;SDS011;10382;49.140;9.234;2023-09-12T09:07:30;27.13;;;9.57;;
20445;SDS011;10382;49.140;9.234;2023-09-12T09:10:00;17.43;;;8.27;;
20445;SDS011;10382;49.140;9.234;2023-09-12T09:12:29;20.43;;;11.17;;
20445;SDS011;10382;49.140;9.234;2023-09-12T09:14:56;25.03;;;9.13;;
20445;SDS011;10382;49.140;9.234;2023-09-12T09:17:23;14.10;;;7.70;;
20445;SDS011;10382;49.140;9.234;2023-09-12T09:19:50;12.97;;;7.50;;
20445;SDS011;10382;49.140;9.234;2023-09-12T09:22:17;19.53;;;9.73;;
20445;SDS011;10382;49.140;9.234;2023-09-12T09:24:43;21.00;;;9.27;;
20445;SDS011;10382;49.140;9.234;2023-09-12T09:27:12;17.90;;;8.27;;
20445;SDS011;10382;49.140;9.234;2023-09-12T09:29:58;18.23;;;7.33;;
20445;SDS011;10382;49.140;9.234;2023-09-12T09:32:25;21.77;;;8.27;;
20445;SDS011;10382;49.140;9.234;2023-09-12T09:34:52;17.57;;;8.57;;
20445;SDS011;10382;49.140;9.234;2023-09-12T09:37:19;17.47;;;8.30;;
20445;SDS011;10382;49.140;9.234;2023-09-12T09:39:46;30.87;;;10.00;;
20445;SDS011;10382;49.140;9.234;2023-09-12T09:42:18;14.90;;;7.83;;
20445;SDS011;10382;49.140;9.234;2023-09-12T09:44:45;14.77;;;8.20;;
20445;SDS011;10382;49.140;9.234;2023-09-12T09:47:13;9.97;;;8.10;;
20445;SDS011;10382;49.140;9.234;2023-09-12T09:49:40;12.53;;;7.50;;
20445;SDS011;10382;49.140;9.234;2023-09-12T09:52:11;18.00;;;8.03;;
20445;SDS011;10382;49.140;9.234;2023-09-12T09:54:42;12.63;;;8.33;;
20445;SDS011;10382;49.140;9.234;2023-09-12T09:57:10;18.97;;;7.47;;
20445;SDS011;10382;49.140;9.234;2023-09-12T09:59:38;14.60;;;7.83;;
20445;SDS011;10382;49.140;9.234;2023-09-12T10:02:05;12.23;;;7.43;;
20445;SDS011;10382;49.140;9.234;2023-09-12T10:04:43;10.83;;;7.83;;
20445;SDS011;10382;49.140;9.234;2023-09-12T10:07:10;10.70;;;7.50;;
20445;SDS011;10382;49.140;9.234;2023-09-12T10:09:37;16.70;;;7.23;;
20445;SDS011;10382;49.140;9.234;2023-09-12T10:12:07;14.67;;;7.60;;
20445;SDS011;10382;49.140;9.234;2023-09-12T10:14:34;15.43;;;7.83;;
20445;SDS011;10382;49.140;9.234;2023-09-12T10:17:03;13.70;;;8.40;;
20445;SDS011;10382;49.140;9.234;2023-09-12T10:19:32;14.40;;;7.20;;
20445;SDS011;10382;49.140;9.234;2023-09-12T10:22:06;14.87;;;7.90;;
20445;SDS011;10382;49.140;9.234;2023-09-12T10:24:36;10.40;;;7.73;;
20445;SDS011;10382;49.140;9.234;2023-09-12T10:27:05;9.10;;;7.40;;
20445;SDS011;10382;49.140;9.234;2023-09-12T10:29:32;15.33;;;7.70;;
20445;SDS011;10382;49.140;9.234;2023-09-12T10:32:01;12.17;;;8.10;;
20445;SDS011;10382;49.140;9.234;2023-09-12T10:34:29;12.30;;;7.33;;
20445;SDS011;10382;49.140;9.234;2023-09-12T10:36:58;10.00;;;7.57;;
20445;SDS011;10382;49.140;9.234;2023-09-12T10:39:26;14.37;;;7.13;;
20445;SDS011;10382;49.140;9.234;2023-09-12T10:41:54;14.40;;;7.60;;
20445;SDS011;10382;49.140;9.234;2023-09-12T10:44:21;14.20;;;8.57;;
20445;SDS011;10382;49.140;9.234;2023-09-12T10:46:49;12.47;;;7.77;;
20445;SDS011;10382;49.140;9.234;2023-09-12T10:49:18;13.20;;;7.23;;
20445;SDS011;10382;49.140;9.234;2023-09-12T10:51:47;15.30;;;7.60;;
20445;SDS011;10382;49.140;9.234;2023-09-12T10:54:14;17.63;;;8.87;;
20445;SDS011;10382;49.140;9.234;2023-09-12T10:56:42;12.30;;;7.97;;
20445;SDS011;10382;49.140;9.234;2023-09-12T10:59:10;14.10;;;8.13;;
20445;SDS011;10382;49.140;9.234;2023-09-12T11:01:41;17.60;;;8.20;;
20445;SDS011;10382;49.140;9.234;2023-09-12T11:10:15;15.70;;;7.87;;
20445;SDS011;10382;49.140;9.234;2023-09-12T11:12:45;13.53;;;8.07;;
20445;SDS011;10382;49.140;9.234;2023-09-12T11:15:12;14.43;;;7.07;;
20445;SDS011;10382;49.140;9.234;2023-09-12T11:17:40;13.90;;;8.30;;
20445;SDS011;10382;49.140;9.234;2023-09-12T11:20:08;9.33;;;7.20;;
20445;SDS011;10382;49.140;9.234;2023-09-12T11:22:38;8.97;;;6.70;;
20445;SDS011;10382;49.140;9.234;2023-09-12T11:25:15;13.00;;;6.63;;
20445;SDS011;10382;49.140;9.234;2023-09-12T11:28:01;25.40;;;8.20;;
20445;SDS011;10382;49.140;9.234;2023-09-12T11:30:30;15.00;;;8.60;;
20445;SDS011;10382;49.140;9.234;2023-09-12T11:32:57;12.77;;;8.00;;
20445;SDS011;10382;49.140;9.234;2023-09-12T11:35:25;19.53;;;7.30;;
20445;SDS011;10382;49.140;9.234;2023-09-12T11:37:56;14.43;;;7.87;;
20445;SDS011;10382;49.140;9.234;2023-09-12T11:40:25;11.93;;;8.30;;
20445;SDS011;10382;49.140;9.234;2023-09-12T11:43:17;21.03;;;8.70;;
20445;SDS011;10382;49.140;9.234;2023-09-12T11:45:46;17.93;;;8.27;;
20445;SDS011;10382;49.140;9.234;2023-09-12T11:48:13;7.77;;;6.00;;
20445;SDS011;10382;49.140;9.234;2023-09-12T11:50:41;13.73;;;6.90;;
20445;SDS011;10382;49.140;9.234;2023-09-12T11:53:09;13.60;;;8.60;;
20445;SDS011;10382;49.140;9.234;2023-09-12T11:55:41;12.63;;;7.53;;
20445;SDS011;10382;49.140;9.234;2023-09-12T11:58:09;16.93;;;7.73;;
20445;SDS011;10382;49.140;9.234;2023-09-12T12:00:37;15.23;;;7.20;;
20445;SDS011;10382;49.140;9.234;2023-09-12T12:03:08;20.90;;;7.80;;
20445;SDS011;10382;49.140;9.234;2023-09-12T12:05:36;33.93;;;8.23;;
20445;SDS011;10382;49.140;9.234;2023-09-12T12:08:03;55.73;;;10.43;;
20445;SDS011;10382;49.140;9.234;2023-09-12T12:10:31;25.17;;;7.47;;
20445;SDS011;10382;49.140;9.234;2023-09-12T12:12:58;14.23;;;7.47;;
20445;SDS011;10382;49.140;9.234;2023-09-12T12:15:27;14.00;;;8.30;;
20445;SDS011;10382;49.140;9.234;2023-09-12T12:17:54;13.30;;;6.97;;
20445;SDS011;10382;49.140;9.234;2023-09-12T12:20:21;12.23;;;8.53;;
20445;SDS011;10382;49.140;9.234;2023-09-12T12:22:48;9.90;;;6.80;;
20445;SDS011;10382;49.140;9.234;2023-09-12T12:25:16;12.00;;;7.47;;
20445;SDS011;10382;49.140;9.234;2023-09-12T12:27:44;18.20;;;6.87;;
20445;SDS011;10382;49.140;9.234;2023-09-12T12:30:12;11.83;;;7.70;;
20445;SDS011;10382;49.140;9.234;2023-09-12T12:32:39;13.57;;;7.70;;
20445;SDS011;10382;49.140;9.234;2023-09-12T12:35:07;10.13;;;6.50;;
20445;SDS011;10382;49.140;9.234;2023-09-12T12:37:35;12.63;;;7.30;;
20445;SDS011;10382;49.140;9.234;2023-09-12T12:40:03;9.23;;;6.67;;
20445;SDS011;10382;49.140;9.234;2023-09-12T12:42:34;23.93;;;7.40;;
20445;SDS011;10382;49.140;9.234;2023-09-12T12:45:11;13.47;;;10.27;;
20445;SDS011;10382;49.140;9.234;2023-09-12T12:47:39;14.83;;;7.27;;
20445;SDS011;10382;49.140;9.234;2023-09-12T12:50:07;33.10;;;10.57;;
20445;SDS011;10382;49.140;9.234;2023-09-12T12:52:35;13.43;;;7.17;;
20445;SDS011;10382;49.140;9.234;2023-09-12T12:55:03;13.10;;;7.83;;
20445;SDS011;10382;49.140;9.234;2023-09-12T12:57:30;19.67;;;8.67;;
20445;SDS011;10382;49.140;9.234;2023-09-12T12:59:58;10.53;;;6.80;;
20445;SDS011;10382;49.140;9.234;2023-09-12T13:02:27;10.30;;;7.53;;
20445;SDS011;10382;49.140;9.234;2023-09-12T13:04:53;14.63;;;7.60;;
20445;SDS011;10382;49.140;9.234;2023-09-12T13:07:20;19.33;;;9.63;;
20445;SDS011;10382;49.140;9.234;2023-09-12T13:09:47;10.97;;;7.37;;
20445;SDS011;10382;49.140;9.234;2023-09-12T13:12:14;8.50;;;7.03;;
20445;SDS011;10382;49.140;9.234;2023-09-12T13:14:42;16.63;;;8.37;;
20445;SDS011;10382;49.140;9.234;2023-09-12T13:17:09;17.40;;;6.20;;
20445;SDS011;10382;49.140;9.234;2023-09-12T13:19:38;7.40;;;5.97;;
20445;SDS011;10382;49.140;9.234;2023-09-12T13:22:05;10.80;;;6.87;;
20445;SDS011;10382;49.140;9.234;2023-09-12T13:24:32;6.90;;;6.20;;
20445;SDS011;10382;49.140;9.234;2023-09-12T13:26:58;8.70;;;6.13;;
20445;SDS011;10382;49.140;9.234;2023-09-12T13:29:25;7.87;;;6.83;;
20445;SDS011;10382;49.140;9.234;2023-09-12T13:31:52;10.17;;;5.73;;
20445;SDS011;10382;49.140;9.234;2023-09-12T13:34:19;6.83;;;6.23;;
20445;SDS011;10382;49.140;9.234;2023-09-12T13:36:47;14.60;;;7.57;;
20445;SDS011;10382;49.140;9.234;2023-09-12T13:39:14;9.67;;;6.07;;
20445;SDS011;10382;49.140;9.234;2023-09-12T13:41:42;9.00;;;5.60;;
20445;SDS011;10382;49.140;9.234;2023-09-12T13:44:10;6.10;;;5.50;;
20445;SDS011;10382;49.140;9.234;2023-09-12T13:46:37;6.73;;;6.07;;
20445;SDS011;10382;49.140;9.234;2023-09-12T13:49:04;7.03;;;6.33;;
20445;SDS011;10382;49.140;9.234;2023-09-12T13:51:31;10.23;;;6.40;;
20445;SDS011;10382;49.140;9.234;2023-09-12T13:53:59;6.23;;;5.50;;
20445;SDS011;10382;49.140;9.234;2023-09-12T13:56:26;5.87;;;5.07;;
20445;SDS011;10382;49.140;9.234;2023-09-12T13:58:53;11.93;;;7.10;;
20445;SDS011;10382;49.140;9.234;2023-09-12T14:01:20;9.00;;;5.70;;
20445;SDS011;10382;49.140;9.234;2023-09-12T14:03:48;6.13;;;5.50;;
20445;SDS011;10382;49.140;9.234;2023-09-12T14:06:15;17.13;;;7.20;;
20445;SDS011;10382;49.140;9.234;2023-09-12T14:08:41;8.10;;;5.30;;
20445;SDS011;10382;49.140;9.234;2023-09-12T14:11:10;8.10;;;5.90;;
20445;SDS011;10382;49.140;9.234;2023-09-12T14:13:36;6.03;;;5.50;;
20445;SDS011;10382;49.140;9.234;2023-09-12T14:16:03;7.80;;;6.17;;
20445;SDS011;10382;49.140;9.234;2023-09-12T14:18:30;7.17;;;5.67;;
20445;SDS011;10382;49.140;9.234;2023-09-12T14:20:57;6.43;;;5.53;;
20445;SDS011;10382;49.140;9.234;2023-09-12T14:23:24;11.33;;;6.53;;
20445;SDS011;10382;49.140;9.234;2023-09-12T14:25:51;9.87;;;6.50;;
20445;SDS011;10382;49.140;9.234;2023-09-12T14:28:19;7.90;;;5.40;;
20445;SDS011;10382;49.140;9.234;2023-09-12T14:30:46;10.07;;;5.43;;
20445;SDS011;10382;49.140;9.234;2023-09-12T14:33:14;11.33;;;5.60;;
20445;SDS011;10382;49.140;9.234;2023-09-12T14:35:42;6.83;;;5.60;;
20445;SDS011;10382;49.140;9.234;2023-09-12T14:38:09;11.13;;;5.10;;
20445;SDS011;10382;49.140;9.234;2023-09-12T14:40:36;9.70;;;6.33;;
20445;SDS011;10382;49.140;9.234;2023-09-12T14:43:04;11.73;;;5.17;;